createdAt,value
2023-01-13T00:00:49.897Z,100280.93
2023-01-13T00:03:27.200Z,100278.33
2023-01-13T00:06:01.550Z,100276.73
2023-01-13T00:08:34.283Z,100273.22
2023-01-13T00:11:06.227Z,100279.16
2023-01-13T00:13:38.647Z,100278.54
2023-01-13T00:16:15.748Z,100277.47
2023-01-13T00:18:48.814Z,100277.53
2023-01-13T00:21:21.946Z,100277.16
2023-01-13T00:23:55.290Z,100274.56
2023-01-13T00:26:30.719Z,100272.33
2023-01-13T00:29:03.065Z,100275.20
2023-01-13T00:31:34.975Z,100275.50
2023-01-13T00:34:07.122Z,100275.99
2023-01-13T00:36:39.055Z,100275.63
2023-01-13T00:39:10.963Z,100272.79
2023-01-13T00:42:00.858Z,100267.25
2023-01-13T00:44:32.738Z,100269.19
2023-01-13T00:47:04.642Z,100267.52
2023-01-13T00:49:36.452Z,100264.25
2023-01-13T00:52:08.571Z,100265.39
2023-01-13T00:54:40.663Z,100266.17
2023-01-13T00:57:12.578Z,100269.38
2023-01-13T00:59:44.689Z,100271.01
2023-01-13T01:02:16.968Z,100263.99
2023-01-13T01:04:49.192Z,100266.70
2023-01-13T01:07:21.150Z,100264.51
2023-01-13T01:09:53.780Z,100260.33
2023-01-13T01:12:25.652Z,100252.55
2023-01-13T01:14:57.473Z,100250.71
2023-01-13T01:17:30.638Z,100247.56
2023-01-13T01:20:02.869Z,100243.92
2023-01-13T01:22:34.985Z,100241.48
2023-01-13T01:25:08.350Z,100239.68
2023-01-13T01:27:40.299Z,100238.23
2023-01-13T01:30:17.634Z,100235.81
2023-01-13T01:32:49.697Z,100231.80
2023-01-13T01:35:21.761Z,100229.41
2023-01-13T01:37:53.624Z,100226.48
2023-01-13T01:40:27.863Z,100226.37
2023-01-13T01:43:17.632Z,100221.70
2023-01-13T01:45:52.764Z,100219.05
2023-01-13T01:48:24.688Z,100213.61
2023-01-13T01:50:57.119Z,100213.11
2023-01-13T01:53:30.553Z,100206.79
2023-01-13T01:56:03.383Z,100201.76
2023-01-13T01:58:36.806Z,100195.15
2023-01-13T02:01:09.484Z,100191.08
2023-01-13T02:03:43.408Z,100187.00
2023-01-13T02:06:16.172Z,100186.50
2023-01-13T02:08:49.100Z,100180.80
2023-01-13T02:12:12.455Z,100181.43
2023-01-13T02:14:44.730Z,100176.46
2023-01-13T02:17:24.229Z,100180.36
2023-01-13T02:20:34.185Z,100179.83
2023-01-13T02:23:59.505Z,100173.71
2023-01-13T02:26:59.236Z,100174.11
2023-01-13T02:30:03.363Z,100173.91
2023-01-13T02:32:39.843Z,100172.05
2023-01-13T02:35:16.259Z,100172.52
2023-01-13T02:37:48.800Z,100164.77
2023-01-13T02:40:22.488Z,100165.75
2023-01-13T02:43:17.001Z,100168.34
2023-01-13T02:45:52.684Z,100167.19
2023-01-13T02:48:25.836Z,100162.70
2023-01-13T02:51:00.294Z,100161.80
2023-01-13T02:53:35.680Z,100159.54
2023-01-13T02:56:08.711Z,100161.10
2023-01-13T02:58:42.282Z,100163.11
2023-01-13T03:01:14.182Z,100157.31
2023-01-13T03:03:47.113Z,100153.74
2023-01-13T03:06:32.248Z,100148.44
2023-01-13T03:09:09.055Z,100145.23
2023-01-13T03:11:47.100Z,100144.65
2023-01-13T03:14:28.207Z,100146.38
2023-01-13T03:17:13.575Z,100140.21
2023-01-13T03:19:48.222Z,100140.62
2023-01-13T03:22:27.752Z,100137.13
2023-01-13T03:25:03.916Z,100139.47
2023-01-13T03:27:41.734Z,100139.48
2023-01-13T03:30:19.010Z,100140.29
2023-01-13T03:32:53.573Z,100138.89
2023-01-13T03:35:28.985Z,100137.91
2023-01-13T03:38:04.203Z,100136.35
2023-01-13T03:40:38.229Z,100131.88
2023-01-13T03:43:30.911Z,100132.95
2023-01-13T03:46:06.497Z,100134.38
2023-01-13T03:48:40.307Z,100133.39
2023-01-13T03:51:15.173Z,100134.20
2023-01-13T03:53:50.731Z,100132.89
2023-01-13T03:56:28.926Z,100125.71
2023-01-13T03:59:01.839Z,100126.91
2023-01-13T04:01:36.564Z,100128.15
2023-01-13T04:04:10.765Z,100125.52
2023-01-13T04:06:45.715Z,100126.41
2023-01-13T04:09:20.033Z,100133.20
2023-01-13T04:11:55.197Z,100129.89
2023-01-13T04:14:27.483Z,100129.55
2023-01-13T04:16:59.819Z,100128.73
2023-01-13T04:19:31.761Z,100126.72
2023-01-13T04:22:03.766Z,100124.14
2023-01-13T04:24:37.244Z,100123.13
2023-01-13T04:27:09.681Z,100123.69
2023-01-13T04:29:41.558Z,100122.36
2023-01-13T04:32:13.588Z,100117.29
2023-01-13T04:34:45.306Z,100122.46
2023-01-13T04:37:17.558Z,100120.33
2023-01-13T04:39:49.340Z,100111.67
2023-01-13T04:42:21.471Z,100111.08
2023-01-13T04:44:53.260Z,100110.06
2023-01-13T04:47:25.526Z,100111.98
2023-01-13T04:49:57.393Z,100115.80
2023-01-13T04:52:29.571Z,100112.92
2023-01-13T04:55:01.392Z,100113.99
2023-01-13T04:57:35.037Z,100111.00
2023-01-13T05:00:09.038Z,100110.38
2023-01-13T05:02:39.594Z,100111.17
2023-01-13T05:05:12.735Z,100109.80
2023-01-13T05:07:44.813Z,100112.31
2023-01-13T05:10:17.032Z,100110.74
2023-01-13T05:13:07.156Z,100109.71
2023-01-13T05:15:56.719Z,100112.38
2023-01-13T05:18:29.063Z,100112.91
2023-01-13T05:21:00.889Z,100109.74
2023-01-13T05:23:50.737Z,100108.37
2023-01-13T05:26:23.988Z,100114.59
2023-01-13T05:28:55.916Z,100110.21
2023-01-13T05:31:27.730Z,100114.12
2023-01-13T05:33:59.949Z,100113.95
2023-01-13T05:36:31.730Z,100113.62
2023-01-13T05:39:05.474Z,100111.63
2023-01-13T05:41:54.575Z,100112.80
2023-01-13T05:44:26.539Z,100111.23
2023-01-13T05:46:58.411Z,100113.98
2023-01-13T05:49:30.453Z,100114.17
2023-01-13T05:52:02.238Z,100115.14
2023-01-13T05:54:34.146Z,100117.25
2023-01-13T05:57:06.111Z,100113.88
2023-01-13T05:59:38.279Z,100116.24
2023-01-13T06:02:10.138Z,100115.55
2023-01-13T06:04:42.207Z,100120.89
2023-01-13T06:07:14.052Z,100126.25
2023-01-13T06:09:46.138Z,100131.77
2023-01-13T06:12:18.001Z,100129.79
2023-01-13T06:14:50.165Z,100128.70
2023-01-13T06:17:21.952Z,100127.63
2023-01-13T06:19:54.385Z,100133.14
2023-01-13T06:22:28.186Z,100128.57
2023-01-13T06:25:00.317Z,100135.21
2023-01-13T06:27:33.002Z,100134.30
2023-01-13T06:30:05.366Z,100133.61
2023-01-13T06:32:41.369Z,100131.71
2023-01-13T06:35:17.166Z,100132.45
2023-01-13T06:37:51.993Z,100129.38
2023-01-13T06:40:24.191Z,100128.88
2023-01-13T06:43:16.846Z,100134.33
2023-01-13T06:45:51.096Z,100130.98
2023-01-13T06:48:25.941Z,100138.33
2023-01-13T06:50:57.734Z,100135.05
2023-01-13T06:53:29.702Z,100139.65
2023-01-13T06:56:01.766Z,100142.49
2023-01-13T06:58:33.669Z,100141.13
2023-01-13T07:01:06.195Z,100140.13
2023-01-13T07:03:38.200Z,100139.06
2023-01-13T07:06:10.737Z,100134.69
2023-01-13T07:08:42.863Z,100134.90
2023-01-13T07:11:14.735Z,100138.23
2023-01-13T07:14:04.078Z,100136.46
2023-01-13T07:16:36.194Z,100137.67
2023-01-13T07:19:08.151Z,100132.80
2023-01-13T07:21:40.348Z,100133.34
2023-01-13T07:24:12.175Z,100134.47
2023-01-13T07:26:44.034Z,100138.23
2023-01-13T07:29:15.949Z,100134.45
2023-01-13T07:31:49.944Z,100137.98
2023-01-13T07:34:22.452Z,100139.92
2023-01-13T07:36:54.594Z,100140.09
2023-01-13T07:39:26.496Z,100141.39
2023-01-13T07:42:15.882Z,100142.79
2023-01-13T07:44:47.681Z,100143.49
2023-01-13T07:47:23.290Z,100141.16
2023-01-13T07:49:55.175Z,100144.25
2023-01-13T07:52:27.171Z,100141.41
2023-01-13T07:54:59.079Z,100145.04
2023-01-13T07:57:31.636Z,100144.94
2023-01-13T08:00:03.899Z,100142.92
2023-01-13T08:02:35.753Z,100143.45
2023-01-13T08:05:08.758Z,100146.47
2023-01-13T08:07:40.805Z,100144.48
2023-01-13T08:10:13.888Z,100144.87
2023-01-13T08:13:03.785Z,100142.88
2023-01-13T08:15:36.176Z,100143.88
2023-01-13T08:18:08.094Z,100142.80
2023-01-13T08:20:39.967Z,100149.48
2023-01-13T08:23:11.936Z,100146.88
2023-01-13T08:25:43.917Z,100143.84
2023-01-13T08:28:17.504Z,100148.73
2023-01-13T08:30:49.574Z,100153.46
2023-01-13T08:33:21.927Z,100151.89
2023-01-13T08:35:53.881Z,100144.33
2023-01-13T08:38:26.379Z,100147.02
2023-01-13T08:40:58.386Z,100146.75
2023-01-13T08:43:30.423Z,100147.21
2023-01-13T08:46:05.096Z,100143.44
2023-01-13T08:48:37.188Z,100145.90
2023-01-13T08:51:10.652Z,100142.40
2023-01-13T08:53:42.972Z,100143.38
2023-01-13T08:56:17.051Z,100145.26
2023-01-13T08:58:47.297Z,100145.18
2023-01-13T09:01:22.019Z,100147.48
2023-01-13T09:03:54.532Z,100151.65
2023-01-13T09:06:26.664Z,100154.48
2023-01-13T09:08:58.600Z,100157.89
2023-01-13T09:11:52.472Z,100156.17
2023-01-13T09:14:26.446Z,100151.66
2023-01-13T09:16:58.452Z,100150.41
2023-01-13T09:19:30.803Z,100146.02
2023-01-13T09:22:02.634Z,100145.57
2023-01-13T09:24:34.754Z,100142.11
2023-01-13T09:27:06.643Z,100141.44
2023-01-13T09:29:39.268Z,100142.36
2023-01-13T09:32:14.648Z,100142.11
2023-01-13T09:35:02.356Z,100144.12
2023-01-13T09:37:36.844Z,100146.48
2023-01-13T09:40:12.613Z,100136.52
2023-01-13T09:43:05.574Z,100134.05
2023-01-13T09:45:44.306Z,100134.13
2023-01-13T09:48:20.184Z,100128.73
2023-01-13T09:50:59.193Z,100134.15
2023-01-13T09:53:33.885Z,100132.20
2023-01-13T09:56:06.254Z,100128.15
2023-01-13T09:58:38.183Z,100128.11
2023-01-13T10:01:20.646Z,100121.22
2023-01-13T10:03:55.109Z,100118.73
2023-01-13T10:06:34.595Z,100117.54
2023-01-13T10:09:06.839Z,100114.78
2023-01-13T10:11:59.850Z,100118.53
2023-01-13T10:14:39.689Z,100119.04
2023-01-13T10:17:18.065Z,100113.63
2023-01-13T10:19:54.301Z,100110.92
2023-01-13T10:22:33.579Z,100108.84
2023-01-13T10:25:22.455Z,100098.66
2023-01-13T10:27:56.385Z,100100.50
2023-01-13T10:30:31.690Z,100096.61
2023-01-13T10:33:10.444Z,100098.66
2023-01-13T10:36:15.704Z,100100.80
2023-01-13T10:38:48.826Z,100093.29
2023-01-13T10:41:24.952Z,100091.63
2023-01-13T10:44:07.260Z,100092.53
2023-01-13T10:46:54.548Z,100093.19
2023-01-13T10:49:36.456Z,100092.89
2023-01-13T10:52:28.565Z,100089.16
2023-01-13T10:55:01.310Z,100088.76
2023-01-13T10:57:38.665Z,100085.73
2023-01-13T11:00:30.264Z,100090.33
2023-01-13T11:03:26.152Z,100088.48
2023-01-13T11:06:00.345Z,100086.30
2023-01-13T11:08:42.330Z,100084.92
2023-01-13T11:11:40.340Z,100080.16
2023-01-13T11:14:37.090Z,100082.37
2023-01-13T11:17:34.164Z,100076.14
2023-01-13T11:20:16.226Z,100080.95
2023-01-13T11:22:51.349Z,100080.15
2023-01-13T11:25:32.662Z,100078.89
2023-01-13T11:28:07.994Z,100080.02
2023-01-13T11:30:44.025Z,100084.35
2023-01-13T11:33:32.082Z,100082.23
2023-01-13T11:36:12.100Z,100080.04
2023-01-13T11:38:53.539Z,100081.57
2023-01-13T11:41:32.946Z,100069.30
2023-01-13T11:44:14.740Z,100070.40
2023-01-13T11:46:47.543Z,100069.13
2023-01-13T11:49:26.621Z,100061.44
2023-01-13T11:52:02.078Z,100061.61
2023-01-13T11:54:49.531Z,100064.38
2023-01-13T11:57:50.835Z,100061.55
2023-01-13T12:00:32.787Z,100061.61
2023-01-13T12:03:24.705Z,100055.19
2023-01-13T12:06:16.581Z,100056.27
2023-01-13T12:08:58.543Z,100053.33
2023-01-13T12:11:54.595Z,100052.64
2023-01-13T12:14:36.184Z,100050.30
2023-01-13T12:17:12.821Z,100051.39
2023-01-13T12:19:47.136Z,100049.37
2023-01-13T12:22:24.620Z,100047.77
2023-01-13T12:25:01.885Z,100045.75
2023-01-13T12:27:41.825Z,100046.58
2023-01-13T12:30:25.660Z,100045.71
2023-01-13T12:33:04.459Z,100049.59
2023-01-13T12:35:40.659Z,100047.08
2023-01-13T12:38:15.372Z,100055.04
2023-01-13T12:40:53.251Z,100059.29
2023-01-13T12:43:43.634Z,100059.54
2023-01-13T12:46:36.737Z,100061.23
2023-01-13T12:49:22.412Z,100051.38
2023-01-13T12:52:26.527Z,100052.20
2023-01-13T12:55:18.216Z,100049.16
2023-01-13T12:58:02.734Z,100047.55
2023-01-13T13:00:53.551Z,100046.94
2023-01-13T13:03:39.185Z,100052.57
2023-01-13T13:06:17.277Z,100050.46
2023-01-13T13:09:03.255Z,100048.45
2023-01-13T13:12:06.802Z,100047.06
2023-01-13T13:15:21.170Z,100045.14
2023-01-13T13:18:21.126Z,100044.73
2023-01-13T13:21:10.066Z,100045.78
2023-01-13T13:24:06.056Z,100051.61
2023-01-13T13:26:46.141Z,100056.52
2023-01-13T13:29:44.505Z,100057.71
2023-01-13T13:32:32.070Z,100055.04
2023-01-13T13:35:15.357Z,100063.70
2023-01-13T13:38:16.798Z,100064.17
2023-01-13T13:41:07.127Z,100063.46
2023-01-13T13:44:01.609Z,100066.25
2023-01-13T13:46:48.367Z,100068.67
2023-01-13T13:49:22.845Z,100067.63
2023-01-13T13:52:01.603Z,100070.02
2023-01-13T13:54:34.337Z,100068.38
2023-01-13T13:57:06.334Z,100067.52
2023-01-13T13:59:41.187Z,100066.14
2023-01-13T14:02:21.077Z,100066.22
2023-01-13T14:04:53.276Z,100067.20
2023-01-13T14:07:25.506Z,100070.50
2023-01-13T14:09:59.785Z,100075.41
2023-01-13T14:12:30.444Z,100071.29
2023-01-13T14:15:02.766Z,100073.00
2023-01-13T14:17:34.835Z,100070.55
2023-01-13T14:20:09.999Z,100071.33
2023-01-13T14:22:41.951Z,100074.52
2023-01-13T14:25:30.422Z,100078.71
2023-01-13T14:28:06.858Z,100074.71
2023-01-13T14:30:39.265Z,100080.85
2023-01-13T14:33:17.329Z,100074.84
2023-01-13T14:36:16.430Z,100072.88
2023-01-13T14:38:49.861Z,100071.85
2023-01-13T14:41:27.719Z,100072.23
2023-01-13T14:44:01.960Z,100073.00
2023-01-13T14:46:44.474Z,100072.64
2023-01-13T14:49:27.977Z,100073.45
2023-01-13T14:52:09.013Z,100076.21
2023-01-13T14:54:49.158Z,100072.11
2023-01-13T14:57:28.606Z,100076.46
2023-01-13T15:00:05.111Z,100077.04
2023-01-13T15:03:02.506Z,100072.78
2023-01-13T15:05:42.751Z,100073.56
2023-01-13T15:08:42.024Z,100070.80
2023-01-13T15:11:25.170Z,100071.70
2023-01-13T15:14:01.464Z,100073.56
2023-01-13T15:16:35.012Z,100074.27
2023-01-13T15:19:07.077Z,100077.11
2023-01-13T15:21:38.887Z,100077.15
2023-01-13T15:24:11.191Z,100080.05
2023-01-13T15:26:43.191Z,100078.40
2023-01-13T15:29:16.374Z,100075.56
2023-01-13T15:31:48.176Z,100076.96
2023-01-13T15:34:20.398Z,100072.38
2023-01-13T15:36:52.241Z,100072.79
2023-01-13T15:39:24.154Z,100072.91
2023-01-13T15:42:15.697Z,100073.94
2023-01-13T15:45:05.410Z,100076.79
2023-01-13T15:47:37.807Z,100068.56
2023-01-13T15:50:16.481Z,100067.94
2023-01-13T15:52:48.459Z,100068.16
2023-01-13T15:55:20.562Z,100069.18
2023-01-13T15:57:52.798Z,100071.92
2023-01-13T16:00:25.615Z,100068.91
2023-01-13T16:02:57.883Z,100072.77
2023-01-13T16:05:29.890Z,100070.60
2023-01-13T16:08:01.983Z,100072.20
2023-01-13T16:10:34.080Z,100075.85
2023-01-13T16:13:06.221Z,100077.33
2023-01-13T16:15:38.162Z,100081.62
2023-01-13T16:18:12.018Z,100085.98
2023-01-13T16:20:43.919Z,100084.66
2023-01-13T16:23:16.197Z,100087.85
2023-01-13T16:25:48.646Z,100082.98
2023-01-13T16:28:24.406Z,100088.50
2023-01-13T16:30:57.046Z,100086.54
2023-01-13T16:33:29.030Z,100088.70
2023-01-13T16:36:10.865Z,100098.30
2023-01-13T16:38:45.020Z,100098.67
2023-01-13T16:41:17.275Z,100095.54
2023-01-13T16:43:49.649Z,100092.92
2023-01-13T16:46:26.631Z,100089.45
2023-01-13T16:49:03.108Z,100091.43
2023-01-13T16:51:35.246Z,100092.95
2023-01-13T16:54:07.299Z,100092.48
2023-01-13T16:56:39.389Z,100088.05
2023-01-13T16:59:13.658Z,100091.84
2023-01-13T17:01:46.155Z,100086.98
2023-01-13T17:04:20.332Z,100086.27
2023-01-13T17:06:56.641Z,100085.54
2023-01-13T17:09:29.867Z,100084.61
2023-01-13T17:12:02.538Z,100084.27
2023-01-13T17:14:34.325Z,100087.05
2023-01-13T17:17:06.742Z,100090.29
2023-01-13T17:19:38.630Z,100095.56
2023-01-13T17:22:10.695Z,100100.11
2023-01-13T17:24:42.904Z,100100.94
2023-01-13T17:27:17.372Z,100104.82
2023-01-13T17:29:49.191Z,100104.24
2023-01-13T17:32:23.015Z,100104.05
2023-01-13T17:34:55.449Z,100108.29
2023-01-13T17:37:27.554Z,100110.48
2023-01-13T17:39:59.504Z,100111.50
2023-01-13T17:42:32.158Z,100112.73
2023-01-13T17:45:04.091Z,100109.73
2023-01-13T17:47:36.425Z,100114.89
2023-01-13T17:50:09.613Z,100117.86
2023-01-13T17:52:41.520Z,100116.58
2023-01-13T17:55:13.550Z,100117.98
2023-01-13T17:57:45.633Z,100120.09
2023-01-13T18:00:20.453Z,100119.52
2023-01-13T18:02:52.445Z,100123.30
2023-01-13T18:05:25.054Z,100121.05
2023-01-13T18:07:57.068Z,100125.73
2023-01-13T18:10:29.435Z,100125.71
2023-01-13T18:13:02.709Z,100122.17
2023-01-13T18:15:35.587Z,100125.66
2023-01-13T18:18:07.818Z,100121.84
2023-01-13T18:21:05.809Z,100122.73
2023-01-13T18:24:09.442Z,100116.78
2023-01-13T18:26:59.336Z,100123.55
2023-01-13T18:29:31.596Z,100121.81
2023-01-13T18:32:03.603Z,100120.61
2023-01-13T18:34:36.038Z,100121.91
2023-01-13T18:37:09.405Z,100129.55
2023-01-13T18:39:42.637Z,100127.29
2023-01-13T18:42:32.382Z,100126.41
2023-01-13T18:45:04.554Z,100123.99
2023-01-13T18:47:39.139Z,100129.89
2023-01-13T18:50:13.952Z,100136.75
2023-01-13T18:52:46.005Z,100132.55
2023-01-13T18:55:18.041Z,100134.99
2023-01-13T18:57:50.477Z,100141.19
2023-01-13T19:00:24.688Z,100143.23
2023-01-13T19:05:38.422Z,100150.34
2023-01-13T19:08:11.298Z,100153.30
2023-01-13T19:10:45.797Z,100148.35
2023-01-13T19:13:18.726Z,100150.94
2023-01-13T19:15:50.633Z,100157.67
2023-01-13T19:18:24.539Z,100161.19
2023-01-13T19:20:56.311Z,100155.93
2023-01-13T19:23:28.404Z,100154.83
2023-01-13T19:26:03.175Z,100152.69
2023-01-13T19:28:35.976Z,100157.92
2023-01-13T19:31:09.758Z,100155.65
2023-01-13T19:33:42.761Z,100157.96
2023-01-13T19:36:14.729Z,100160.67
2023-01-13T19:38:46.946Z,100163.25
2023-01-13T19:41:32.931Z,100163.86
2023-01-13T19:44:23.219Z,100158.07
2023-01-13T19:46:55.000Z,100161.29
2023-01-13T19:49:27.308Z,100164.58
2023-01-13T19:51:59.228Z,100166.66
2023-01-13T19:54:31.542Z,100170.66
2023-01-13T19:57:03.501Z,100174.29
2023-01-13T19:59:35.624Z,100175.96
2023-01-13T20:02:09.795Z,100175.23
2023-01-13T20:04:44.946Z,100184.25
2023-01-13T20:07:16.957Z,100186.14
2023-01-13T20:09:49.243Z,100188.04
2023-01-13T20:12:21.659Z,100190.44
2023-01-13T20:14:54.386Z,100194.23
2023-01-13T20:17:26.787Z,100192.80
2023-01-13T20:19:59.881Z,100192.77
2023-01-13T20:22:32.296Z,100187.81
2023-01-13T20:25:05.771Z,100192.41
2023-01-13T20:27:38.426Z,100200.52
2023-01-13T20:30:13.858Z,100204.01
2023-01-13T20:32:46.376Z,100207.54
2023-01-13T20:35:18.793Z,100207.14
2023-01-13T20:37:51.301Z,100206.77
2023-01-13T20:40:23.757Z,100209.14
2023-01-13T20:42:56.949Z,100209.20
2023-01-13T20:45:29.645Z,100215.23
2023-01-13T20:48:01.771Z,100216.09
2023-01-13T20:50:34.496Z,100218.00
2023-01-13T20:53:06.572Z,100221.66
2023-01-13T20:55:41.937Z,100226.59
2023-01-13T20:58:13.724Z,100233.92
2023-01-13T21:00:45.977Z,100236.42
2023-01-13T21:03:17.953Z,100238.39
2023-01-13T21:05:49.996Z,100233.39
2023-01-13T21:08:21.826Z,100235.69
2023-01-13T21:10:59.844Z,100232.58
2023-01-13T21:13:49.352Z,100232.68
2023-01-13T21:16:21.442Z,100240.11
2023-01-13T21:19:10.812Z,100246.34
2023-01-13T21:21:42.888Z,100245.89
2023-01-13T21:24:14.690Z,100243.88
2023-01-13T21:26:46.703Z,100250.69
2023-01-13T21:29:18.798Z,100246.60
2023-01-13T21:31:50.909Z,100243.85
2023-01-13T21:34:22.720Z,100243.10
2023-01-13T21:36:54.440Z,100250.82
2023-01-13T21:39:26.366Z,100259.66
2023-01-13T21:42:15.867Z,100263.83
2023-01-13T21:45:05.473Z,100266.74
2023-01-13T21:47:49.640Z,100268.22
2023-01-13T21:50:23.235Z,100271.88
2023-01-13T21:52:56.154Z,100274.23
2023-01-13T21:55:29.443Z,100277.26
2023-01-13T21:58:02.372Z,100271.36
2023-01-13T22:00:34.476Z,100271.17
2023-01-13T22:03:07.731Z,100268.05
2023-01-13T22:05:40.070Z,100271.05
2023-01-13T22:08:15.216Z,100278.73
2023-01-13T22:10:58.544Z,100281.59
2023-01-13T22:13:48.392Z,100286.34
2023-01-13T22:16:20.734Z,100286.42
2023-01-13T22:18:53.145Z,100287.13
2023-01-13T22:21:25.009Z,100284.94
2023-01-13T22:23:59.403Z,100288.70
2023-01-13T22:26:29.757Z,100288.38
2023-01-13T22:29:02.344Z,100293.30
2023-01-13T22:31:34.209Z,100293.92
2023-01-13T22:34:06.270Z,100295.18
2023-01-13T22:36:38.080Z,100304.10
2023-01-13T22:39:12.326Z,100306.10
2023-01-13T22:41:44.132Z,100311.13
2023-01-13T22:44:16.529Z,100314.93
2023-01-13T22:46:48.701Z,100314.88
2023-01-13T22:49:23.150Z,100317.71
2023-01-13T22:51:55.480Z,100314.74
2023-01-13T22:54:27.494Z,100316.11
2023-01-13T22:56:59.357Z,100317.05
2023-01-13T22:59:32.071Z,100315.78
2023-01-13T23:02:03.987Z,100317.54
2023-01-13T23:04:36.339Z,100319.08
2023-01-13T23:07:08.241Z,100321.67
2023-01-13T23:09:40.211Z,100322.89
2023-01-13T23:12:12.128Z,100323.71
2023-01-13T23:14:44.258Z,100321.06
2023-01-13T23:17:16.078Z,100317.14
2023-01-13T23:19:48.075Z,100320.65
2023-01-13T23:22:20.260Z,100323.48
2023-01-13T23:24:52.306Z,100327.00
2023-01-13T23:27:24.228Z,100330.87
2023-01-13T23:29:57.201Z,100329.92
2023-01-13T23:32:29.361Z,100331.86
2023-01-13T23:35:01.359Z,100336.45
2023-01-13T23:37:34.288Z,100339.60
2023-01-13T23:40:07.197Z,100337.44
2023-01-13T23:42:38.995Z,100334.70
2023-01-13T23:45:13.210Z,100328.85
2023-01-13T23:47:43.576Z,100328.38
2023-01-13T23:50:15.655Z,100325.36
2023-01-13T23:52:47.425Z,100327.21
2023-01-13T23:55:19.406Z,100326.36
2023-01-13T23:57:51.201Z,100328.06
